LAS weather

McCarran International Airport
Las Vegas, Nevada, United States

Public forecast

Using degrees Fahrenheit for public forecast. Weather courtesy of forecast.io.

Current aviation weather report (METAR) for McCarran International Airport

Retrieved 2019/10/23 01:56 UTC (31 minutes ago):

KLAS 230156Z 00000KT 10SM CLR 25/M03 A3006 RMK AO2 SLP164 T02501028

Aviation forecast (TAF) for McCarran International Airport

Retrieved 2019-10-23 00:22 UTC (2 hours ago):

TAF KLAS 222320Z 2300/2406 VRB04KT P6SM SKC FM230300 21006KT P6SM FEW250 FM231500 VRB04KT P6SM FEW250 FM231900 02008KT P6SM FEW250